Home Widget 1

This is your first home widget box. To edit please go to Appearance > Widgets and choose 6th widget from the top in area 6 called Home Widget 1. Title is also manageable from widgets as well.

Facebook Status

AKA LLC
Facebook Icon20/11/2014 at 09:02

AKA LLC added a new photo.

Facebook Picture
AKA LLC
Facebook Icon19/11/2014 at 16:51

AKA LLC changed their profile picture.

Facebook Picture
AKA LLC
Facebook Icon19/11/2014 at 16:38

Malaysia bound

Facebook Picture

AKA LLC TAF AMD CYYR 191806Z 1918/2018 25030G45KT P6SM SCT040 BKN100
TEMPO 1918/1922 5SM -SHSN BLSN BKN020 OVC040
BECMG 1922/1924 27025G35KT

19/11/2014 at 17:00

AKA LLC
Facebook Icon19/11/2014 at 16:14

AKA LLC updated their cover photo.

Facebook Picture
AKA LLC
19/11/2014 at 15:58

AKA LLC commented on their own photo.

Projects

UTC